Аэропорт: Могилёв. Могилёв

ICAO: UMOO

METAR:
2018/05/19 03:00
UMOO 190300Z 28002MPS 9999 SCT040 BKN/// 11/09 Q1007 NOSIG
METAR:
2016/01/23 06:00
TAF UMOO 230500Z 2306/2315 28005MPS 4000 -SN BR OVC008 
      TEMPO 2306/2315 1200 SN BR BKN005